Eagle Point, Wisconsin
Current Conditions -  °F | °C
As of 8:56 AM on Wednesday 22 Oct 2014 (Local Time) from KEAU Reporting Station
Clear Clear  
Wind Chill: 35°   Ceiling: Unl
Heat Index: 40°   Visibility: 10mi
Dew Point: 34°   Wind: 7mph
Humidity: 79%   Direction: 140°SE
Pressure: 30.28"   Gusts: NA
Location:  44.9743°N, 91.4379°W
Report Text: KEAU 221356Z 14006KT 10SM CLR 04/01 A3028 RMK AO2 SLP261 T00440011
Loading
Personal Weather Stations






























Interactive Weather Map
Tropical Storm Tracking
New forecast layout! Learn more

10-Day Weather Forecast

Advertisements
Track Severe Weather on mobile